• Join FlightAware (Why Join?)
  • Login
  • US Flag 
03:53AM EDT


 

Airport Tracker/Info


-or-


 

Live Flight TrackerFlight Track Log ✈ DAL370 ✈ 16-Nov-2013 ✈ KATL - KLAX

Flight Track Log - Related Links

Times and Time Zones

All times are in EST time to prevent confusion due to time zone crossing. See the DAL370 flight status page for this flight to view local times or setup timezone preferences in your user account.

Time Position Orientation Groundspeed Altitude Reporting Facility
EST Latitude Longitude Course Direction KTS MPH feet Rate Location/Type
03:41PM 33.6500 -84.3833 73° East 167 192 2,400  Level Atlanta TRACON
03:42PM 33.6667 -84.3167 73° East 219 252 3,400 1,260 Climbing Atlanta TRACON
03:43PM 33.7167 -84.2667 40° Northeast 282 325 4,800 1,800 Climbing Atlanta TRACON
03:44PM 33.8000 -84.3000 342° North 297 342 7,000 2,040 Climbing Atlanta TRACON
03:46PM 33.8103 -84.4764 274° West 285 328 11,000 1,620 Climbing Atlanta Center
03:47PM 33.8075 -84.5889 268° West 325 374 11,900 1,020 Climbing Atlanta Center
03:48PM 33.7842 -84.6961 255° West 356 410 13,100 1,560 Climbing Atlanta Center
03:49PM 33.7542 -84.8133 253° West 367 422 15,100 1,980 Climbing Atlanta Center
03:50PM 33.7556 -84.9458 271° West 387 445 17,100 1,560 Climbing Atlanta Center
03:51PM 33.7753 -85.0708 281° West 387 445 18,300 1,260 Climbing Atlanta Center
03:52PM 33.7992 -85.2161 281° West 392 451 19,700 1,380 Climbing Atlanta Center
03:53PM 33.8186 -85.3489 280° West 397 457 21,100 1,380 Climbing Atlanta Center
03:54PM 33.8422 -85.4869 282° West 409 471 22,500 1,380 Climbing Atlanta Center
03:55PM 33.8633 -85.6225 281° West 416 479 23,900 1,200 Climbing Atlanta Center
03:56PM 33.8867 -85.7606 282° West 416 479 25,000 1,020 Climbing Atlanta Center
03:57PM 33.9014 -85.8958 278° West 416 479 26,000 960 Climbing Atlanta Center
03:58PM 33.9222 -86.0339 280° West 416 479 27,000 1,140 Climbing Atlanta Center
03:59PM 33.9447 -86.1772 281° West 426 490 28,300 1,500 Climbing Atlanta Center
04:00PM 33.9653 -86.3131 280° West 426 490 30,000 1,500 Climbing Atlanta Center
04:01PM 33.9836 -86.4489 279° West 421 484 31,400 960 Climbing Atlanta Center
04:02PM 34.0019 -86.5772 280° West 409 471 32,000 300 Climbing Atlanta Center
04:03PM 34.0222 -86.7056 281° West 404 465 32,000  Level Atlanta Center
04:05PM 34.0603 -86.9706 280° West 391 450 32,000  Level Memphis Center
04:06PM 34.0781 -87.1006 279° West 389 448 32,000  Level Memphis Center
04:07PM 34.0972 -87.2400 279° West 390 449 32,000  Level Memphis Center
04:08PM 34.1144 -87.3711 279° West 392 451 32,000  Level Memphis Center
04:09PM 34.1325 -87.5017 280° West 391 450 32,000  Level Memphis Center
04:10PM 34.1508 -87.6325 280° West 392 451 32,000  Level Memphis Center
04:11PM 34.1683 -87.7639 279° West 392 451 32,000  Level Memphis Center
04:12PM 34.1867 -87.8950 280° West 392 451 32,000  Level Memphis Center
04:13PM 34.2031 -88.0272 279° West 394 453 32,000  Level Memphis Center
04:14PM 34.2211 -88.1589 279° West 394 453 32,000  Level Memphis Center
04:16PM 34.2375 -88.2883 279° West 395 455 32,000  Level Memphis Center
04:17PM 34.2583 -88.4458 279° West 395 455 32,100 540 Climbing Memphis Center
04:18PM 34.2750 -88.5756 279° West 392 451 33,200 900 Climbing Memphis Center
04:19PM 34.2894 -88.7036 278° West 388 447 34,000 360 Climbing Memphis Center
04:20PM 34.3028 -88.8339 277° West 381 438 34,000  Level Memphis Center
04:21PM 34.3167 -88.9606 278° West 377 434 34,000 240 Level Memphis Center
04:22PM 34.3297 -89.0889 277° West 379 436 34,600 660 Climbing Memphis Center
04:23PM 34.3439 -89.2139 278° West 374 430 35,400 660 Climbing Memphis Center
04:24PM 34.3556 -89.3386 276° West 371 427 36,000 240 Climbing Memphis Center
04:25PM 34.3692 -89.4628 278° West 369 425 36,000  Level Memphis Center
04:26PM 34.3822 -89.5864 277° West 367 422 36,000  Level Memphis Center
04:27PM 34.3939 -89.7100 277° West 366 421 36,000  Level Memphis Center
04:28PM 34.4061 -89.8331 277° West 364 419 36,000  Level Memphis Center
04:29PM 34.4192 -89.9564 277° West 364 419 36,000  Level Memphis Center
04:30PM 34.4308 -90.0800 277° West 365 420 36,000  Level Memphis Center
04:31PM 34.4439 -90.2042 277° West 364 419 36,000  Level Memphis Center
04:32PM 34.4558 -90.3272 277° West 365 420 36,000  Level Memphis Center
04:33PM 34.5044 -90.4439 297° West 378 435 36,000  Level Memphis Center
04:34PM 34.5617 -90.5811 297° West 383 441 36,000  Level Memphis Center
04:35PM 34.6108 -90.6961 297° West 382 440 36,000  Level Memphis Center
04:36PM 34.6614 -90.8133 298° West 385 443 36,000  Level Memphis Center
04:37PM 34.7042 -90.9328 294° West 383 441 36,000  Level Memphis Center
04:38PM 34.7108 -91.0553 274° West 363 418 36,000  Level Memphis Center
04:39PM 34.7106 -91.1781 270° West 361 415 36,000  Level Memphis Center
04:40PM 34.7092 -91.3006 269° West 359 413 36,000  Level Memphis Center
04:41PM 34.7117 -91.4231 271° West 359 413 36,000  Level Memphis Center
04:42PM 34.7189 -91.5464 274° West 362 417 36,000  Level Memphis Center
04:43PM 34.7269 -91.6719 274° West 367 422 36,000  Level Memphis Center
04:44PM 34.7319 -91.7939 273° West 363 418 36,000  Level Memphis Center
04:45PM 34.7358 -91.9139 272° West 355 409 36,000  Level Memphis Center
04:46PM 34.7417 -92.0514 273° West 356 410 36,000  Level Memphis Center
04:47PM 34.7494 -92.1725 275° West 359 413 36,000  Level Memphis Center
04:48PM 34.7528 -92.2900 272° West 354 407 36,000  Level Memphis Center
04:49PM 34.7572 -92.4083 273° West 352 405 36,000  Level Memphis Center
04:50PM 34.7625 -92.5267 273° West 352 405 36,000  Level Memphis Center
04:51PM 34.7672 -92.6444 273° West 350 403 36,000  Level Memphis Center
04:52PM 34.7722 -92.7864 272° West 351 404 36,000  Level Memphis Center
04:53PM 34.7772 -92.9042 273° West 350 403 36,000  Level Memphis Center
04:54PM 34.7819 -93.0214 273° West 349 402 36,000  Level Memphis Center
04:55PM 34.7853 -93.1386 272° West 349 402 36,000  Level Memphis Center
04:57PM 34.7894 -93.2594 272° West 354 407 36,000  Level Memphis Center
04:58PM 34.7944 -93.3794 273° West 357 411 36,000  Level Memphis Center
04:59PM 34.7978 -93.5011 272° West 359 413 36,000  Level Memphis Center
05:00PM 34.8031 -93.6478 273° West 361 415 36,000  Level Memphis Center
05:01PM 34.8056 -93.7692 271° West 361 415 36,000  Level Memphis Center
05:02PM 34.8097 -93.8903 272° West 361 415 36,000  Level Memphis Center
05:03PM 34.8131 -94.0103 272° West 359 413 36,000  Level Memphis Center
05:04PM 34.8158 -94.1278 272° West 353 406 36,000  Level Memphis Center
05:05PM 34.8194 -94.2442 272° West 350 403 36,000  Level Memphis Center
05:06PM 34.8225 -94.3614 272° West 349 402 36,000  Level Memphis Center
05:07PM 34.8253 -94.5031 271° West 349 402 36,000  Level Memphis Center
05:08PM 34.8289 -94.6192 272° West 348 400 36,000  Level Memphis Center
05:09PM 34.8319 -94.7081 272° West 341 392 36,000  Level Fort Worth Center
05:10PM 34.8361 -94.8489 272° West 348 400 36,000  Level Fort Worth Center
05:11PM 34.8392 -94.9658 272° West 347 399 36,000  Level Fort Worth Center
05:12PM 34.8408 -95.0875 271° West 355 409 36,000  Level Fort Worth Center
05:13PM 34.8447 -95.2053 272° West 352 405 36,000  Level Fort Worth Center
05:14PM 34.8431 -95.3456 269° West 373 429 36,000  Level Fort Worth Center
05:15PM 34.8439 -95.4603 271° West 350 403 36,000  Level Fort Worth Center
05:16PM 34.8472 -95.5764 272° West 348 400 36,000  Level Fort Worth Center
05:17PM 34.8481 -95.6947 271° West 349 402 36,000  Level Fort Worth Center
05:18PM 34.8581 -95.8364 275° West 350 403 36,000  Level Fort Worth Center
05:19PM 34.8833 -95.9508 285° West 350 403 36,000  Level Fort Worth Center
05:20PM 34.9058 -96.0686 283° West 353 406 36,000  Level Fort Worth Center
05:21PM 34.9275 -96.1842 283° West 352 405 36,000  Level Fort Worth Center
05:22PM 34.9497 -96.3022 283° West 355 409 36,000  Level Fort Worth Center
05:23PM 34.9717 -96.4175 283° West 350 403 36,000  Level Fort Worth Center
05:24PM 34.9933 -96.5333 283° West 349 402 36,000  Level Fort Worth Center
05:25PM 35.0194 -96.6728 283° West 351 404 36,000  Level Fort Worth Center
05:26PM 35.0406 -96.7878 283° West 349 402 36,000  Level Fort Worth Center
05:27PM 35.0625 -96.9042 283° West 351 404 36,000  Level Fort Worth Center
05:28PM 35.0842 -97.0200 283° West 349 402 36,000  Level Fort Worth Center
05:29PM 35.1058 -97.1353 283° West 348 400 36,000  Level Fort Worth Center
05:30PM 35.1272 -97.2528 283° West 351 404 36,000  Level Fort Worth Center
05:31PM 35.1489 -97.3697 283° West 349 402 36,000  Level Fort Worth Center
05:33PM 35.1739 -97.5117 282° West 352 405 36,000  Level Fort Worth Center
05:34PM 35.1958 -97.6289 283° West 351 404 36,000  Level Fort Worth Center
05:35PM 35.2169 -97.7461 282° West 352 405 36,000  Level Fort Worth Center
05:36PM 35.2383 -97.8636 283° West 353 406 36,000  Level Fort Worth Center
05:37PM 35.2583 -97.9803 282° West 351 404 36,000  Level Fort Worth Center
05:38PM 35.2786 -98.0939 282° West 345 397 36,000  Level Fort Worth Center
05:39PM 35.2997 -98.2086 283° West 345 397 36,000  Level Fort Worth Center
05:40PM 35.3228 -98.3456 282° West 344 396 36,000  Level Fort Worth Center
05:41PM 35.3431 -98.4603 282° West 345 397 36,000  Level Fort Worth Center
05:43PM 35.3800 -98.6800 282° West 344 396 36,000  Level Fort Worth Center
05:44PM 35.4039 -98.8194 282° West 346 398 36,000  Level Fort Worth Center
05:45PM 35.4236 -98.9339 282° West 342 394 36,000  Level Fort Worth Center
05:46PM 35.4428 -99.0500 281° West 344 396 36,000  Level Fort Worth Center
05:47PM 35.4625 -99.1672 282° West 346 398 36,000  Level Fort Worth Center
05:48PM 35.4825 -99.2853 282° West 349 402 36,000  Level Fort Worth Center
05:49PM 35.5008 -99.4033 281° West 350 403 36,000  Level Fort Worth Center
05:50PM 35.5197 -99.5192 281° West 345 397 36,000  Level Fort Worth Center
05:51PM 35.5392 -99.6356 282° West 346 398 36,000  Level Fort Worth Center
05:52PM 35.5581 -99.7511 281° West 344 396 36,000  Level Fort Worth Center
05:53PM 35.5717 -99.8456 280° West 347 399 36,000  Level Albuquerque Center
05:54PM 35.5908 -99.9622 281° West 348 400 36,000  Level Albuquerque Center
05:55PM 35.6092 -100.0803 281° West 349 402 36,000  Level Albuquerque Center
05:56PM 35.6275 -100.1958 281° West 346 398 36,000  Level Albuquerque Center
05:57PM 35.6447 -100.3117 280° West 344 396 36,000  Level Albuquerque Center
05:58PM 35.6639 -100.4292 281° West 347 399 36,000  Level Albuquerque Center
05:59PM 35.6853 -100.5700 281° West 349 402 36,000  Level Albuquerque Center
06:00PM 35.7014 -100.6764 281° West 351 404 36,000 -360 Level Albuquerque Center
06:01PM 35.7192 -100.7942 281° West 351 404 35,300 -1,080 Descending Albuquerque Center
06:02PM 35.7372 -100.9136 281° West 354 407 33,800 -1,620 Descending Albuquerque Center
06:03PM 35.7594 -101.0647 280° West 371 427 32,000 -900 Descending Albuquerque Center
06:04PM 35.7792 -101.1939 281° West 383 441 32,000  Level Albuquerque Center
06:05PM 35.7975 -101.3219 280° West 382 440 32,000  Level Albuquerque Center
06:06PM 35.8075 -101.4486 276° West 378 435 32,000  Level Albuquerque Center
06:07PM 35.8025 -101.5742 267° West 371 427 32,000  Level Albuquerque Center
06:08PM 35.7986 -101.7028 268° West 376 433 32,000  Level Albuquerque Center
06:09PM 35.7950 -101.8569 268° West 378 435 32,000  Level Albuquerque Center
06:10PM 35.7903 -101.9881 267° West 382 440 32,000  Level Albuquerque Center
06:11PM 35.7867 -102.1211 268° West 388 447 32,000  Level Albuquerque Center
06:12PM 35.7822 -102.2572 268° West 396 456 32,000  Level Albuquerque Center
06:13PM 35.7778 -102.3931 268° West 400 460 32,000  Level Albuquerque Center
06:14PM 35.7728 -102.5292 267° West 400 460 32,000  Level Albuquerque Center
06:15PM 35.7689 -102.6678 268° West 405 466 32,000  Level Albuquerque Center
06:16PM 35.7628 -102.8342 267° West 407 468 32,000  Level Albuquerque Center
06:17PM 35.7578 -102.9561 267° West 407 468 32,000  Level Albuquerque Center
06:18PM 35.7531 -103.0975 268° West 409 471 32,000  Level Albuquerque Center
06:19PM 35.7464 -103.2633 267° West 413 475 32,000  Level Albuquerque Center
06:20PM 35.7408 -103.4033 267° West 410 472 32,000  Level Albuquerque Center
06:22PM 35.7350 -103.5442 267° West 409 471 32,000  Level Albuquerque Center
06:23PM 35.7300 -103.6817 267° West 403 464 32,000  Level Albuquerque Center
06:24PM 35.7228 -103.8211 266° West 405 466 32,000  Level Albuquerque Center
06:25PM 35.7172 -103.9628 267° West 410 472 32,000  Level Albuquerque Center
06:26PM 35.7106 -104.1011 267° West 409 471 32,000  Level Albuquerque Center
06:27PM 35.7044 -104.2400 267° West 407 468 32,000  Level Albuquerque Center
06:28PM 35.6975 -104.3775 266° West 403 464 32,000  Level Albuquerque Center
06:29PM 35.6889 -104.5375 266° West 402 463 32,000  Level Albuquerque Center
06:30PM 35.6808 -104.6800 266° West 411 473 32,000  Level Albuquerque Center
06:31PM 35.6733 -104.8233 266° West 417 480 32,000  Level Albuquerque Center
06:32PM 35.6653 -104.9647 266° West 414 476 32,000  Level Albuquerque Center
06:33PM 35.6575 -105.1056 266° West 412 474 32,000  Level Albuquerque Center
06:34PM 35.6203 -105.2392 251° West 418 481 32,000  Level Albuquerque Center
06:35PM 35.5736 -105.3686 246° West 414 476 32,000  Level Albuquerque Center
06:36PM 35.5258 -105.4994 246° West 415 478 32,000  Level Albuquerque Center
06:37PM 35.4811 -105.6258 247° West 404 465 32,000  Level Albuquerque Center
06:38PM 35.4372 -105.7461 246° West 391 450 32,000  Level Albuquerque Center
06:39PM 35.3944 -105.8656 246° West 381 438 32,000  Level Albuquerque Center
06:40PM 35.3497 -105.9881 246° West 386 444 32,000  Level Albuquerque Center
06:41PM 35.3031 -106.1161 246° West 400 460 32,000  Level Albuquerque Center
06:42PM 35.2544 -106.2481 246° West 415 478 32,000  Level Albuquerque Center
06:43PM 35.2061 -106.3794 246° West 420 483 32,000  Level Albuquerque Center
06:44PM 35.1594 -106.5056 246° West 412 474 32,000  Level Albuquerque Center
06:45PM 35.1056 -106.6497 245° Southwest 392 451 32,000  Level Albuquerque Center
06:46PM 35.0608 -106.7725 246° West 393 452 32,000  Level Albuquerque Center
06:47PM 35.0403 -106.9100 260° West 396 456 32,000  Level Albuquerque Center
06:48PM 35.0375 -107.0458 269° West 402 463 32,000  Level Albuquerque Center
06:49PM 35.0339 -107.1839 268° West 407 468 32,000  Level Albuquerque Center
06:50PM 35.0297 -107.3347 268° West 413 475 32,000  Level Albuquerque Center
06:51PM 35.0256 -107.4761 268° West 418 481 32,000  Level Albuquerque Center
06:52PM 35.0228 -107.5975 268° West 426 490 32,000  Level Albuquerque Center
06:53PM 35.0172 -107.7667 268° West 419 482 32,000  Level Albuquerque Center
06:54PM 35.0122 -107.9081 268° West 418 481 32,000  Level Albuquerque Center
06:55PM 35.0083 -108.0478 268° West 415 478 32,000  Level Albuquerque Center
06:56PM 35.0036 -108.1964 268° West 417 480 32,000  Level Albuquerque Center
06:57PM 34.9989 -108.3336 268° West 421 484 32,000  Level Albuquerque Center
06:58PM 34.9928 -108.4919 267° West 419 482 32,000  Level Albuquerque Center
06:59PM 34.9875 -108.6256 267° West 413 475 32,100  Climbing Albuquerque Center
07:00PM 34.9822 -108.7592 267° West 412 474 32,000 -60 Descending Albuquerque Center
07:01PM 34.9769 -108.9119 268° West 406 467 32,000  Level Albuquerque Center
07:02PM 34.9706 -109.0442 267° West 406 467 32,000  Level Albuquerque Center
07:03PM 34.9653 -109.1792 267° West 410 472 32,000  Level Albuquerque Center
07:04PM 34.9547 -109.3369 265° West 415 478 32,000  Level Albuquerque Center
07:05PM 34.9444 -109.4725 265° West 418 481 32,000  Level Albuquerque Center
07:07PM 34.9356 -109.6058 265° West 414 476 32,000  Level Albuquerque Center
07:08PM 34.9247 -109.7642 265° West 417 480 32,000  Level Albuquerque Center
07:09PM 34.9156 -109.8992 265° West 418 481 32,000  Level Albuquerque Center
07:10PM 34.9039 -110.0572 265° West 417 480 32,000  Level Albuquerque Center
07:11PM 34.8944 -110.1961 265° West 424 488 32,000  Level Albuquerque Center
07:12PM 34.8861 -110.3325 266° West 423 487 32,000  Level Albuquerque Center
07:13PM 34.8722 -110.4872 264° West 416 479 32,000  Level Albuquerque Center
07:14PM 34.8608 -110.6242 264° West 419 482 32,000  Level Albuquerque Center
07:15PM 34.8478 -110.7692 264° West 421 484 32,000  Level Albuquerque Center
07:16PM 34.8358 -110.9108 264° West 423 487 32,000  Level Albuquerque Center
07:17PM 34.8247 -111.0539 265° West 427 491 32,000  Level Albuquerque Center
07:18PM 34.8139 -111.2006 265° West 435 501 32,000  Level Albuquerque Center
07:19PM 34.8025 -111.3422 264° West 428 493 32,000  Level Albuquerque Center
07:20PM 34.7903 -111.4842 264° West 425 489 32,000  Level Albuquerque Center
07:21PM 34.7775 -111.6306 264° West 433 498 32,000  Level Albuquerque Center
07:22PM 34.7622 -111.8064 264° West 437 503 32,000  Level Albuquerque Center
07:23PM 34.7492 -111.9539 264° West 441 507 32,000  Level Albuquerque Center
07:24PM 34.7361 -112.1017 264° West 443 510 32,000  Level Albuquerque Center
07:25PM 34.7222 -112.2472 263° West 439 505 32,000  Level Albuquerque Center
07:26PM 34.7108 -112.3822 264° West 438 504 32,000  Level Albuquerque Center
07:27PM 34.6978 -112.5289 264° West 437 503 32,000  Level Albuquerque Center
07:28PM 34.6761 -112.7050 262° West 438 504 32,000  Level Albuquerque Center
07:29PM 34.6578 -112.8533 261° West 442 509 32,000  Level Albuquerque Center
07:30PM 34.6406 -113.0011 262° West 442 509 32,000  Level Albuquerque Center
07:31PM 34.6233 -113.1492 262° West 443 510 32,000  Level Albuquerque Center
07:32PM 34.6042 -113.2983 261° West 446 513 32,000  Level Albuquerque Center
07:33PM 34.5858 -113.4464 261° West 446 513 32,000  Level Albuquerque Center
07:34PM 34.5675 -113.5961 262° West 447 514 32,000  Level Albuquerque Center
07:35PM 34.5400 -113.7503 258° West 450 518 32,000  Level Albuquerque Center
07:36PM 34.5092 -113.8972 256° West 449 517 32,000  Level Albuquerque Center
07:37PM 34.4792 -114.0458 256° West 452 520 32,000  Level Albuquerque Center
07:38PM 34.4383 -114.2536 257° West 455 524 32,000  Level Los Angeles Center
07:39PM 34.4064 -114.4036 256° West 460 529 32,000  Level Los Angeles Center
07:40PM 34.3744 -114.5517 255° West 458 527 32,000  Level Los Angeles Center
07:42PM 34.3439 -114.7008 256° West 455 524 32,000 -540 Level Los Angeles Center
07:43PM 34.3125 -114.8453 255° West 451 519 31,000 -1,020 Descending Los Angeles Center
07:44PM 34.2756 -115.0225 256° West 452 520 30,000 -540 Descending Los Angeles Center
07:45PM 34.2444 -115.1708 256° West 455 524 30,000  Level Los Angeles Center
07:46PM 34.2128 -115.3186 256° West 455 524 30,000  Level Los Angeles Center
07:47PM 34.1794 -115.4650 255° West 454 522 30,000  Level Los Angeles Center
07:48PM 34.1467 -115.6147 255° West 460 529 30,000  Level Los Angeles Center
07:49PM 34.1144 -115.7644 255° West 462 532 30,000  Level Los Angeles Center
07:50PM 34.0900 -115.9125 259° West 456 525 30,000  Level Los Angeles Center
07:51PM 34.0644 -116.0939 260° West 458 527 30,000  Level Los Angeles Center
07:52PM 34.0417 -116.2444 260° West 459 528 30,000 -420 Level Los Angeles Center
07:53PM 34.0183 -116.3947 259° West 460 529 29,200 -1,560 Descending Los Angeles Center
07:54PM 34.0011 -116.5414 262° West 448 516 26,800 -2,160 Descending Los Angeles Center
07:55PM 33.9919 -116.6492 264° West 416 479 24,800 -2,040 Descending Los Angeles Center
07:56PM 33.9817 -116.7769 264° West 389 448 22,700 -2,520 Descending Los Angeles Center
07:57PM 33.9667 -116.9500 264° West 362 417 19,700 -2,460 Descending Southern California TRACON
07:58PM 33.9500 -117.0667 260° West 333 383 17,700 -1,740 Descending Southern California TRACON
07:59PM 33.9500 -117.1833 270° West 302 348 16,100 -1,440 Descending Southern California TRACON
08:00PM 33.9333 -117.2667 256° West 301 346 14,800 -1,320 Descending Southern California TRACON
08:01PM 33.9333 -117.3667 270° West 290 334 13,600 -1,260 Descending Southern California TRACON
08:02PM 33.9667 -117.4500 296° West 280 322 12,300 -1,140 Descending Southern California TRACON
08:03PM 33.9833 -117.5333 284° West 270 311 11,400 -720 Descending Southern California TRACON
08:04PM 34.0167 -117.6333 292° West 322 371 10,900 -600 Descending Southern California TRACON
08:05PM 34.0000 -117.7167 256° West 265 305 10,200 -1,080 Descending Southern California TRACON
08:06PM 34.0000 -117.8167 270° West 269 310 8,800 -1,380 Descending Southern California TRACON
08:07PM 33.9833 -117.9000 256° West 269 310 7,500 -1,380 Descending Southern California TRACON
08:08PM 33.9833 -117.9833 270° West 268 308 6,100 -1,200 Descending Southern California TRACON
08:09PM 33.9667 -118.0667 256° West 246 283 5,100 -1,080 Descending Southern California TRACON
08:10PM 33.9667 -118.1500 270° West 221 254 4,000 -1,140 Descending Southern California TRACON
08:10PM 33.9586 -118.1800 252° West 227 261 3,400 -1,140 Descending Los Angeles Center
08:12PM 33.9514 -118.2456 262° West 211 243 2,300 -1,020 Descending Los Angeles Center
08:13PM 33.9464 -118.3039 264° West 194 223 1,400 -840 Descending Los Angeles Center
08:14PM 33.9411 -118.3547 263° West 169 194 600 -480 Descending Los Angeles Center
08:15PM 34.0128 -118.3975 334° Northwest 210 242 500 -120 Descending Los Angeles Center